Dallas, TX

9:57 PM CST on December 04, 2016 (GMT -0600)
MAYOR'S WAY | | Change Station

Elev 492 ft 32.80 °N, 96.81 °W | Updated 16 seconds ago

Overcast
Overcast
49.0 °F
Feels Like 49 °F
N
3.0
Wind Variable Wind from SSE

Today
High -- | Low -- °F
--% Chance of Precip.
Yesterday
High -- | Low -- °F
Precip. -- in
Pressure 30.05 in
Visibility 10.0 miles
Clouds Few 2100 ft
Overcast 21000 ft
Windchill 49 °F
Dew Point 41 °F
Humidity 75%
Rainfall 0.00 in
Snow Depth Not available.
7:14 AM 5:20 PM
Waxing Crescent, 28% visible
METAR KDAL 050353Z 06003KT 10SM FEW021 OVC210 10/06 A3005 RMK AO2 SLP175 T01000056
Pressure 30.05 in
Visibility 10.0 miles
Clouds Few 2100 ft
Overcast 21000 ft
Windchill 49 °F
Dew Point 41 °F
Humidity 75%
Rainfall 0.00 in
Snow Depth Not available.
7:14 AM 5:20 PM
Waxing Crescent, 28% visible
METAR KDAL 050353Z 06003KT 10SM FEW021 OVC210 10/06 A3005 RMK AO2 SLP175 T01000056

10-Day Weather Forecast

Almanac

Astronomy

Dec. 04, 2016 Rise Set
Actual Time
Civil Twilight
Nautical Twilight
Astronomical Twilight
Moon
Length of Visible Light
Length of Day
Tomorrow will be .
, % of the Moon is Illuminated

Today's Extremes

State Highs State Lows

Community

WunderPhotos

Upload Photos

1,955,757 photos uploaded!

WunderBlog® & News

Nearby

Air Quality

  Air Quality AQ Index Pollutant
Not available.

Snow Depth

Station Depth Elevation

Earthquake Activity

City Distance Mag. Time & Date
Minimum magnitude displayed is 2.5.

Coastal Water Temperatures

Place Temperature

Stations

Nearby Weather Stations

Station Location Temp. Windchill Dew Point Humidity Wind Precip. Elev Updated Type
                   

Watches & Warnings

There are currently no watches in effect.